createdAt,value
2022-12-08T00:02:02.664Z,17.90
2022-12-08T00:04:51.207Z,18.53
2022-12-08T00:07:36.845Z,16.40
2022-12-08T00:10:25.097Z,20.30
2022-12-08T00:12:53.809Z,18.57
2022-12-08T00:15:23.297Z,20.17
2022-12-08T00:17:51.509Z,17.17
2022-12-08T00:20:19.688Z,16.17
2022-12-08T00:22:47.848Z,18.07
2022-12-08T00:25:16.126Z,18.13
2022-12-08T00:27:44.342Z,16.93
2022-12-08T00:30:13.116Z,16.90
2022-12-08T00:32:42.590Z,19.13
2022-12-08T00:35:10.955Z,16.20
2022-12-08T00:37:39.170Z,18.40
2022-12-08T00:40:08.937Z,17.07
2022-12-08T00:42:37.199Z,21.00
2022-12-08T00:45:06.331Z,17.13
2022-12-08T00:47:34.737Z,19.90
2022-12-08T00:50:08.304Z,23.83
2022-12-08T00:52:39.120Z,17.13
2022-12-08T00:55:08.548Z,15.20
2022-12-08T00:57:38.009Z,19.93
2022-12-08T01:00:11.274Z,17.87
2022-12-08T01:02:39.765Z,17.97
2022-12-08T01:05:10.267Z,16.70
2022-12-08T01:07:38.487Z,21.10
2022-12-08T01:10:08.513Z,18.17
2022-12-08T01:12:36.865Z,17.73
2022-12-08T01:15:06.112Z,18.43
2022-12-08T01:17:34.470Z,20.90
2022-12-08T01:20:03.537Z,15.40
2022-12-08T01:22:35.090Z,15.90
2022-12-08T01:25:03.406Z,16.70
2022-12-08T01:27:31.784Z,16.60
2022-12-08T01:30:00.010Z,20.50
2022-12-08T01:32:28.213Z,15.10
2022-12-08T01:34:56.391Z,14.70
2022-12-08T01:37:24.543Z,14.43
2022-12-08T01:39:53.983Z,20.70
2022-12-08T01:42:23.679Z,15.83
2022-12-08T01:44:58.840Z,19.13
2022-12-08T01:47:36.045Z,15.93
2022-12-08T01:50:05.713Z,16.37
2022-12-08T01:52:38.720Z,17.03
2022-12-08T01:55:13.625Z,16.20
2022-12-08T01:57:47.106Z,25.43
2022-12-08T02:00:17.769Z,15.90
2022-12-08T02:02:54.042Z,16.93
2022-12-08T02:05:24.298Z,13.40
2022-12-08T02:07:55.431Z,13.93
2022-12-08T02:10:29.180Z,14.70
2022-12-08T02:12:59.860Z,16.13
2022-12-08T02:15:38.168Z,14.00
2022-12-08T02:18:25.330Z,16.03
2022-12-08T02:21:01.682Z,15.10
2022-12-08T02:23:42.368Z,16.80
2022-12-08T02:26:43.003Z,13.70
2022-12-08T02:29:44.816Z,13.50
2022-12-08T02:32:38.653Z,19.13
2022-12-08T02:35:15.193Z,12.70
2022-12-08T02:37:51.570Z,23.60
2022-12-08T02:40:25.595Z,16.10
2022-12-08T02:42:58.072Z,13.13
2022-12-08T02:45:31.504Z,15.43
2022-12-08T02:48:00.891Z,15.33
2022-12-08T02:50:30.748Z,15.50
2022-12-08T02:52:59.080Z,13.27
2022-12-08T02:55:30.426Z,14.10
2022-12-08T02:58:21.993Z,17.90
2022-12-08T03:01:02.319Z,13.97
2022-12-08T03:03:37.054Z,13.53
2022-12-08T03:06:20.455Z,12.30
2022-12-08T03:08:55.968Z,13.10
2022-12-08T03:11:29.359Z,11.97
2022-12-08T03:14:01.663Z,11.60
2022-12-08T03:16:32.601Z,11.00
2022-12-08T03:19:04.561Z,12.03
2022-12-08T03:21:36.259Z,9.90
2022-12-08T03:24:08.285Z,9.90
2022-12-08T03:26:44.602Z,12.10
2022-12-08T03:29:14.056Z,12.50
2022-12-08T03:31:49.700Z,12.53
2022-12-08T03:34:19.273Z,11.50
2022-12-08T03:36:48.815Z,11.57
2022-12-08T03:39:17.020Z,11.63
2022-12-08T03:41:45.669Z,9.33
2022-12-08T03:44:14.223Z,13.33
2022-12-08T03:46:42.373Z,11.50
2022-12-08T03:49:10.564Z,9.27
2022-12-08T03:51:38.816Z,8.77
2022-12-08T03:54:08.382Z,10.73
2022-12-08T03:56:38.244Z,8.87
2022-12-08T03:59:07.320Z,9.30
2022-12-08T04:01:35.608Z,10.50
2022-12-08T04:04:03.957Z,10.57
2022-12-08T04:06:32.171Z,9.00
2022-12-08T04:09:01.575Z,10.60
2022-12-08T04:11:31.160Z,9.23
2022-12-08T04:13:59.421Z,12.60
2022-12-08T04:16:28.533Z,9.10
2022-12-08T04:18:56.823Z,9.50
2022-12-08T04:21:24.962Z,10.37
2022-12-08T04:23:59.167Z,12.27
2022-12-08T04:26:30.691Z,10.33
2022-12-08T04:28:58.802Z,12.97
2022-12-08T04:31:27.055Z,8.73
2022-12-08T04:33:55.315Z,10.53
2022-12-08T04:36:23.458Z,7.17
2022-12-08T04:38:51.677Z,8.53
2022-12-08T04:41:19.771Z,10.70
2022-12-08T04:43:49.420Z,10.77
2022-12-08T04:46:17.682Z,11.60
2022-12-08T04:48:45.924Z,10.53
2022-12-08T04:51:17.334Z,10.70
2022-12-08T04:53:46.898Z,12.63
2022-12-08T04:56:16.818Z,10.87
2022-12-08T04:58:45.223Z,14.30
2022-12-08T05:01:15.177Z,15.10
2022-12-08T05:03:43.533Z,12.30
2022-12-08T05:06:14.154Z,14.47
2022-12-08T05:08:42.834Z,17.90
2022-12-08T05:11:13.222Z,13.50
2022-12-08T05:13:41.519Z,12.87
2022-12-08T05:16:11.266Z,13.73
2022-12-08T05:18:42.143Z,14.80
2022-12-08T05:21:10.599Z,14.47
2022-12-08T05:23:39.194Z,15.27
2022-12-08T05:26:07.612Z,18.47
2022-12-08T05:28:43.900Z,18.83
2022-12-08T05:31:13.368Z,21.13
2022-12-08T05:33:43.519Z,17.83
2022-12-08T05:36:14.314Z,18.80
2022-12-08T05:38:43.156Z,20.60
2022-12-08T05:41:14.792Z,19.37
2022-12-08T05:43:43.325Z,19.13
2022-12-08T05:46:12.377Z,19.30
2022-12-08T05:48:42.093Z,22.73
2022-12-08T05:51:18.293Z,21.87
2022-12-08T05:53:46.835Z,22.07
2022-12-08T05:56:15.212Z,24.00
2022-12-08T05:58:43.570Z,22.00
2022-12-08T06:01:20.388Z,20.97
2022-12-08T06:03:50.064Z,24.40
2022-12-08T06:06:18.526Z,21.67
2022-12-08T06:08:46.736Z,21.97
2022-12-08T06:11:19.663Z,25.20
2022-12-08T06:13:48.080Z,20.07
2022-12-08T06:16:16.278Z,22.70
2022-12-08T06:18:44.580Z,20.90
2022-12-08T06:21:15.923Z,19.90
2022-12-08T06:23:44.757Z,22.13
2022-12-08T06:26:14.786Z,22.23
2022-12-08T06:28:43.944Z,18.63
2022-12-08T06:31:15.088Z,31.07
2022-12-08T06:33:43.532Z,20.43
2022-12-08T06:36:15.070Z,22.60
2022-12-08T06:38:44.139Z,23.47
2022-12-08T06:41:13.410Z,19.50
2022-12-08T06:43:41.981Z,26.43
2022-12-08T06:46:13.082Z,20.90
2022-12-08T06:48:41.448Z,20.07
2022-12-08T06:51:11.228Z,19.30
2022-12-08T06:53:41.587Z,27.40
2022-12-08T06:56:10.420Z,14.40
2022-12-08T06:58:39.068Z,18.43
2022-12-08T07:01:08.910Z,17.53
2022-12-08T07:03:37.799Z,18.90
2022-12-08T07:06:07.148Z,20.43
2022-12-08T07:08:35.800Z,19.67
2022-12-08T07:11:09.712Z,17.57
2022-12-08T07:13:37.910Z,21.87
2022-12-08T07:16:07.809Z,17.60
2022-12-08T07:18:36.981Z,19.90
2022-12-08T07:21:06.549Z,17.10
2022-12-08T07:23:35.579Z,16.90
2022-12-08T07:26:04.500Z,20.70
2022-12-08T07:28:35.237Z,20.20
2022-12-08T07:31:03.519Z,19.00
2022-12-08T07:33:32.101Z,18.33
2022-12-08T07:36:02.379Z,19.67
2022-12-08T07:38:30.702Z,18.90
2022-12-08T07:40:59.136Z,19.80
2022-12-08T07:43:27.594Z,17.97
2022-12-08T07:45:57.266Z,18.30
2022-12-08T07:48:25.525Z,20.20
2022-12-08T07:51:01.589Z,20.83
2022-12-08T07:53:29.776Z,21.00
2022-12-08T07:55:58.118Z,23.57
2022-12-08T07:58:27.526Z,22.93
2022-12-08T08:00:57.273Z,19.97
2022-12-08T08:03:25.578Z,20.63
2022-12-08T08:05:53.776Z,25.37
2022-12-08T08:08:22.036Z,21.70
2022-12-08T08:10:50.359Z,19.07
2022-12-08T08:13:18.593Z,21.27
2022-12-08T08:15:46.953Z,21.13
2022-12-08T08:18:19.156Z,18.20
2022-12-08T08:20:47.381Z,18.23
2022-12-08T08:23:15.581Z,19.67
2022-12-08T08:25:43.786Z,20.63
2022-12-08T08:28:12.007Z,18.20
2022-12-08T08:30:40.522Z,20.20
2022-12-08T08:33:08.837Z,22.23
2022-12-08T08:35:38.395Z,14.80
2022-12-08T08:38:06.890Z,15.97
2022-12-08T08:40:35.107Z,15.37
2022-12-08T08:43:03.607Z,16.77
2022-12-08T08:45:32.582Z,15.83
2022-12-08T08:48:01.248Z,14.43
2022-12-08T08:50:35.854Z,13.07
2022-12-08T08:53:06.983Z,12.20
2022-12-08T08:55:35.122Z,16.10
2022-12-08T08:58:03.345Z,11.40
2022-12-08T09:00:31.943Z,11.60
2022-12-08T09:03:00.207Z,10.73
2022-12-08T09:05:28.369Z,11.13
2022-12-08T09:07:56.587Z,13.93
2022-12-08T09:10:26.461Z,13.53
2022-12-08T09:12:54.702Z,15.03
2022-12-08T09:15:22.969Z,12.83
2022-12-08T09:17:51.228Z,14.50
2022-12-08T09:20:19.607Z,13.03
2022-12-08T09:22:47.819Z,12.17
2022-12-08T09:25:16.144Z,11.43
2022-12-08T09:27:45.697Z,12.87
2022-12-08T09:30:14.617Z,13.43
2022-12-08T09:32:42.926Z,12.40
2022-12-08T09:35:12.096Z,9.10
2022-12-08T09:37:40.330Z,8.17
2022-12-08T09:40:09.472Z,7.57
2022-12-08T09:42:45.706Z,12.77
2022-12-08T09:45:17.421Z,7.90
2022-12-08T09:47:49.723Z,7.37
2022-12-08T09:50:23.349Z,10.53
2022-12-08T09:53:01.444Z,7.50
2022-12-08T09:55:43.124Z,6.30
2022-12-08T09:58:20.612Z,11.67
2022-12-08T10:00:50.131Z,7.30
2022-12-08T10:03:18.725Z,8.43
2022-12-08T10:05:52.554Z,4.47
2022-12-08T10:08:27.791Z,4.00
2022-12-08T10:10:59.431Z,4.83
2022-12-08T10:13:35.485Z,4.10
2022-12-08T10:16:23.088Z,5.20
2022-12-08T10:19:03.253Z,3.77
2022-12-08T10:21:33.762Z,6.07
2022-12-08T10:24:06.933Z,6.63
2022-12-08T10:26:35.211Z,10.00
2022-12-08T10:29:03.953Z,7.10
2022-12-08T10:31:33.553Z,14.80
2022-12-08T10:34:11.361Z,8.13
2022-12-08T10:36:57.395Z,12.63
2022-12-08T10:39:37.856Z,13.10
2022-12-08T10:42:18.280Z,13.83
2022-12-08T10:45:01.594Z,8.93
2022-12-08T10:47:36.026Z,10.80
2022-12-08T10:50:18.832Z,13.10
2022-12-08T10:52:48.062Z,13.70
2022-12-08T10:55:17.812Z,15.23
2022-12-08T10:57:48.879Z,12.87
2022-12-08T11:00:19.302Z,17.13
2022-12-08T11:02:58.494Z,18.30
2022-12-08T11:05:30.293Z,11.30
2022-12-08T11:07:58.916Z,15.00
2022-12-08T11:10:35.388Z,13.00
2022-12-08T11:13:06.663Z,7.60
2022-12-08T11:15:38.747Z,3.70
2022-12-08T11:18:24.009Z,4.27
2022-12-08T11:20:59.376Z,8.20
2022-12-08T11:23:30.457Z,4.30
2022-12-08T11:26:05.957Z,4.60
2022-12-08T11:28:34.292Z,2.27
2022-12-08T11:31:13.158Z,5.97
2022-12-08T11:33:44.388Z,2.93
2022-12-08T11:36:16.490Z,3.80
2022-12-08T11:38:50.436Z,3.17
2022-12-08T11:41:22.061Z,4.57
2022-12-08T11:43:56.709Z,3.70
2022-12-08T11:46:33.741Z,3.30
2022-12-08T11:49:06.979Z,3.60
2022-12-08T11:51:38.863Z,4.97
2022-12-08T11:54:16.788Z,4.20
2022-12-08T11:56:47.936Z,4.40
2022-12-08T11:59:24.119Z,5.77
2022-12-08T12:01:52.802Z,5.20
2022-12-08T12:04:28.575Z,10.63
2022-12-08T12:07:26.371Z,8.30
2022-12-08T12:10:24.234Z,11.33
2022-12-08T12:13:03.883Z,6.40
2022-12-08T12:16:08.767Z,10.30
2022-12-08T12:18:45.116Z,15.40
2022-12-08T12:21:19.758Z,16.00
2022-12-08T12:23:52.800Z,12.10
2022-12-08T12:26:23.786Z,11.43
2022-12-08T12:28:56.415Z,11.90
2022-12-08T12:31:27.418Z,16.40
2022-12-08T12:33:58.715Z,15.60
2022-12-08T12:36:28.259Z,10.90
2022-12-08T12:39:04.039Z,12.60
2022-12-08T12:41:37.867Z,17.17
2022-12-08T12:44:38.658Z,15.27
2022-12-08T12:47:12.162Z,14.53
2022-12-08T12:50:08.506Z,12.40
2022-12-08T12:52:42.829Z,12.33
2022-12-08T12:55:51.829Z,11.30
2022-12-08T12:58:38.458Z,11.70
2022-12-08T13:01:39.051Z,10.30
2022-12-08T13:04:10.651Z,13.70
2022-12-08T13:06:42.866Z,12.50
2022-12-08T13:09:24.627Z,12.03
2022-12-08T13:11:56.718Z,9.47
2022-12-08T13:14:30.367Z,11.57
2022-12-08T13:17:00.789Z,10.73
2022-12-08T13:19:32.949Z,14.17
2022-12-08T13:22:02.044Z,11.87
2022-12-08T13:24:35.616Z,10.40
2022-12-08T13:27:30.387Z,10.27
2022-12-08T13:30:28.482Z,9.80
2022-12-08T13:36:01.280Z,13.47
2022-12-08T13:38:33.831Z,13.80
2022-12-08T13:41:08.153Z,9.80
2022-12-08T13:43:55.609Z,12.20
2022-12-08T13:53:49.490Z,11.70
2022-12-08T13:56:43.430Z,10.83
2022-12-08T13:58:07.559Z,7.70
2022-12-08T14:00:35.859Z,13.43
2022-12-08T14:03:04.211Z,10.80
2022-12-08T14:06:11.209Z,9.63
2022-12-08T14:09:00.071Z,7.50
2022-12-08T14:11:34.484Z,9.73
2022-12-08T14:14:07.890Z,10.53
2022-12-08T14:16:39.926Z,11.90
2022-12-08T14:19:17.779Z,11.87
2022-12-08T14:21:54.704Z,10.83
2022-12-08T14:24:24.079Z,7.23
2022-12-08T14:26:55.256Z,6.40
2022-12-08T14:29:43.295Z,11.70
2022-12-08T14:32:27.429Z,9.70
2022-12-08T14:35:02.036Z,11.60
2022-12-08T14:37:33.694Z,8.97
2022-12-08T14:40:06.543Z,8.93
2022-12-08T14:42:45.004Z,9.87
2022-12-08T14:45:16.681Z,8.20
2022-12-08T14:47:45.638Z,4.53
2022-12-08T14:50:40.826Z,6.33
2022-12-08T14:53:15.053Z,6.10
2022-12-08T14:55:46.095Z,6.40
2022-12-08T14:58:19.752Z,10.90
2022-12-08T15:00:52.322Z,6.43
2022-12-08T15:03:22.858Z,6.30
2022-12-08T15:05:53.161Z,5.37
2022-12-08T15:08:21.530Z,4.90
2022-12-08T15:11:14.549Z,5.80
2022-12-08T15:13:46.180Z,5.07
2022-12-08T15:16:27.897Z,6.73
2022-12-08T15:19:05.348Z,6.80
2022-12-08T15:21:38.879Z,9.50
2022-12-08T15:24:07.559Z,9.07
2022-12-08T15:26:45.769Z,7.03
2022-12-08T15:29:19.093Z,6.90
2022-12-08T15:31:48.845Z,6.20
2022-12-08T15:34:17.164Z,6.30
2022-12-08T15:36:45.745Z,6.50
2022-12-08T15:39:33.084Z,5.30
2022-12-08T15:42:02.015Z,10.53
2022-12-08T15:44:32.475Z,9.33
2022-12-08T15:47:02.329Z,4.17
2022-12-08T15:49:30.554Z,6.10
2022-12-08T15:52:10.841Z,7.30
2022-12-08T15:54:40.144Z,7.40
2022-12-08T15:57:29.727Z,7.67
2022-12-08T16:00:19.049Z,7.90
2022-12-08T16:06:01.690Z,6.83
2022-12-08T16:08:49.626Z,6.87
2022-12-08T16:12:05.297Z,8.77
2022-12-08T16:17:19.004Z,8.77
2022-12-08T16:19:48.604Z,10.20
2022-12-08T16:25:24.363Z,6.90
2022-12-08T16:30:43.609Z,11.20
2022-12-08T16:33:13.154Z,6.63
2022-12-08T16:35:43.411Z,9.50
2022-12-08T16:38:15.823Z,8.67
2022-12-08T16:40:59.719Z,13.07
2022-12-08T16:43:27.865Z,12.40
2022-12-08T16:45:56.137Z,10.13
2022-12-08T16:48:24.414Z,10.27
2022-12-08T16:50:54.642Z,11.93
2022-12-08T16:53:22.989Z,11.33
2022-12-08T16:55:51.765Z,8.03
2022-12-08T16:58:19.984Z,11.40
2022-12-08T17:00:48.513Z,10.60
2022-12-08T17:03:18.642Z,10.20
2022-12-08T17:05:46.827Z,11.20
2022-12-08T17:08:16.402Z,12.63
2022-12-08T17:10:44.618Z,9.40
2022-12-08T17:13:16.819Z,8.80
2022-12-08T17:15:50.866Z,16.43
2022-12-08T17:18:19.108Z,9.30
2022-12-08T17:20:47.360Z,7.27
2022-12-08T17:23:16.859Z,8.90
2022-12-08T17:25:45.012Z,9.23
2022-12-08T17:28:22.466Z,9.60
2022-12-08T17:31:02.973Z,8.00
2022-12-08T17:33:31.149Z,11.97
2022-12-08T17:35:59.375Z,9.90
2022-12-08T17:38:28.887Z,8.47
2022-12-08T17:41:02.245Z,5.30
2022-12-08T17:43:30.489Z,7.20
2022-12-08T17:45:59.413Z,8.03
2022-12-08T17:48:28.480Z,8.33
2022-12-08T17:50:56.873Z,9.30
2022-12-08T17:53:25.090Z,8.10
2022-12-08T17:55:55.428Z,10.83
2022-12-08T17:58:24.184Z,7.97
2022-12-08T18:00:52.645Z,11.43
2022-12-08T18:03:20.976Z,9.77
2022-12-08T18:05:49.326Z,8.90
2022-12-08T18:08:17.682Z,8.53
2022-12-08T18:10:45.912Z,9.40
2022-12-08T18:13:15.427Z,8.13
2022-12-08T18:15:43.612Z,12.47
2022-12-08T18:18:11.785Z,7.73
2022-12-08T18:20:40.078Z,6.50
2022-12-08T18:23:08.260Z,10.20
2022-12-08T18:25:36.476Z,5.93
2022-12-08T18:28:05.305Z,7.17
2022-12-08T18:30:34.870Z,6.40
2022-12-08T18:33:04.979Z,5.77
2022-12-08T18:35:33.287Z,6.80
2022-12-08T18:38:01.843Z,8.70
2022-12-08T18:40:30.285Z,9.47
2022-12-08T18:42:58.579Z,9.67
2022-12-08T18:45:27.057Z,7.07
2022-12-08T18:47:56.946Z,6.90
2022-12-08T18:50:25.640Z,11.80
2022-12-08T18:52:54.140Z,9.33
2022-12-08T18:55:22.383Z,8.87
2022-12-08T18:57:50.646Z,8.73
2022-12-08T19:00:20.864Z,7.93
2022-12-08T19:02:49.176Z,9.50
2022-12-08T19:05:18.915Z,8.10
2022-12-08T19:07:47.112Z,11.97
2022-12-08T19:10:15.485Z,12.63
2022-12-08T19:12:43.738Z,16.43
2022-12-08T19:15:12.656Z,9.23
2022-12-08T19:17:40.958Z,10.07
2022-12-08T19:20:10.103Z,8.60
2022-12-08T19:22:39.925Z,8.87
2022-12-08T19:25:09.077Z,9.07
2022-12-08T19:27:37.468Z,7.30
2022-12-08T19:30:07.521Z,7.73
2022-12-08T19:32:35.917Z,7.37
2022-12-08T19:35:07.290Z,8.00
2022-12-08T19:37:35.779Z,7.30
2022-12-08T19:40:24.303Z,7.17
2022-12-08T19:43:09.953Z,11.23
2022-12-08T19:45:38.968Z,8.77
2022-12-08T19:48:07.405Z,6.93
2022-12-08T19:50:40.262Z,8.13
2022-12-08T19:53:10.912Z,6.70
2022-12-08T19:55:41.096Z,7.93
2022-12-08T19:58:10.059Z,7.63
2022-12-08T20:00:39.664Z,6.73
2022-12-08T20:03:08.916Z,7.17
2022-12-08T20:05:38.073Z,8.10
2022-12-08T20:08:07.160Z,10.10
2022-12-08T20:10:38.406Z,11.07
2022-12-08T20:13:26.500Z,6.53
2022-12-08T20:15:54.882Z,8.90
2022-12-08T20:18:23.257Z,7.00
2022-12-08T20:20:51.684Z,6.77
2022-12-08T20:23:19.850Z,7.83
2022-12-08T20:25:48.537Z,7.53
2022-12-08T20:28:18.970Z,6.37
2022-12-08T20:30:48.956Z,8.83
2022-12-08T20:33:18.036Z,6.73
2022-12-08T20:35:47.244Z,9.30
2022-12-08T20:38:16.046Z,7.73
2022-12-08T20:40:46.981Z,10.00
2022-12-08T20:43:15.287Z,9.13
2022-12-08T20:45:44.878Z,6.37
2022-12-08T20:48:13.237Z,9.83
2022-12-08T20:50:41.793Z,6.83
2022-12-08T20:53:10.457Z,8.27
2022-12-08T20:55:41.583Z,7.73
2022-12-08T20:58:09.952Z,8.77
2022-12-08T21:00:39.036Z,9.00
2022-12-08T21:03:08.947Z,8.00
2022-12-08T21:05:38.829Z,8.93
2022-12-08T21:08:08.434Z,8.87
2022-12-08T21:10:40.789Z,7.63
2022-12-08T21:13:12.226Z,11.03
2022-12-08T21:15:40.597Z,9.00
2022-12-08T21:18:10.367Z,8.07
2022-12-08T21:20:38.893Z,8.80
2022-12-08T21:23:07.160Z,9.80
2022-12-08T21:25:35.857Z,11.40
2022-12-08T21:28:04.363Z,9.70
2022-12-08T21:30:32.732Z,10.50
2022-12-08T21:33:02.206Z,7.73
2022-12-08T21:35:33.093Z,11.30
2022-12-08T21:38:01.549Z,8.20
2022-12-08T21:40:29.897Z,8.90
2022-12-08T21:42:58.324Z,13.30
2022-12-08T21:45:26.789Z,13.73
2022-12-08T21:47:55.338Z,10.90
2022-12-08T21:50:23.758Z,9.00
2022-12-08T21:52:53.305Z,8.10
2022-12-08T21:55:23.537Z,10.37
2022-12-08T21:57:51.906Z,10.10
2022-12-08T22:00:21.959Z,9.53
2022-12-08T22:02:50.273Z,7.47
2022-12-08T22:06:25.791Z,12.03
2022-12-08T22:08:44.354Z,12.43
2022-12-08T22:11:13.226Z,9.00
2022-12-08T22:13:42.807Z,10.43
2022-12-08T22:16:14.552Z,10.27
2022-12-08T22:18:43.882Z,9.70
2022-12-08T22:21:15.899Z,8.10
2022-12-08T22:23:46.334Z,7.80
2022-12-08T22:26:15.865Z,8.27
2022-12-08T22:28:44.849Z,10.40
2022-12-08T22:31:15.679Z,8.63
2022-12-08T22:33:44.941Z,9.67
2022-12-08T22:36:16.907Z,8.50
2022-12-08T22:38:47.081Z,11.80
2022-12-08T22:41:15.662Z,8.57
2022-12-08T22:43:44.804Z,12.00
2022-12-08T22:46:16.662Z,12.67
2022-12-08T22:48:45.647Z,10.10
2022-12-08T22:51:15.244Z,8.17
2022-12-08T22:53:43.978Z,8.40
2022-12-08T22:56:14.684Z,8.80
2022-12-08T22:58:45.456Z,8.70
2022-12-08T23:01:24.208Z,8.33
2022-12-08T23:03:52.705Z,8.43
2022-12-08T23:06:21.350Z,7.97
2022-12-08T23:08:50.361Z,14.10
2022-12-08T23:11:20.647Z,15.90
2022-12-08T23:13:49.109Z,10.73
2022-12-08T23:16:17.512Z,12.47
2022-12-08T23:18:47.570Z,14.50
2022-12-08T23:21:18.495Z,12.53
2022-12-08T23:23:48.352Z,11.93
2022-12-08T23:26:21.004Z,11.83
2022-12-08T23:28:49.563Z,10.37
2022-12-08T23:31:18.279Z,9.23
2022-12-08T23:33:48.143Z,10.03
2022-12-08T23:36:19.080Z,11.30
2022-12-08T23:38:48.006Z,11.57
2022-12-08T23:41:17.286Z,15.83
2022-12-08T23:43:48.884Z,10.80
2022-12-08T23:46:19.307Z,10.37
2022-12-08T23:48:48.550Z,8.17
2022-12-08T23:51:17.666Z,11.70
2022-12-08T23:53:47.908Z,8.73
2022-12-08T23:56:18.176Z,9.70
2022-12-08T23:58:47.825Z,10.17
